FME weather

Tipton Airport
Fort Meade(Odenton), Maryland, United States

Public forecast

Using degrees Fahrenheit for public forecast. Weather courtesy of forecast.io.

Current aviation weather report (METAR) for Tipton Airport

Retrieved 2019/11/14 15:42 UTC (9 minutes ago):

KFME 141542Z AUTO 21005KT 10SM CLR 02/M06 A3043 RMK AO1

Closest aviation forecast (TAF) to Tipton Airport

Closest forecast is Baltimore/Washington International Thurgood Marshall Airport, 6.9 nm (12.7 km) NE. Retrieved 2019/11/14 12:22 UTC (3 hours ago):

TAF KBWI 141120Z 1412/1518 VRB03KT P6SM SCT250 FM141500 20007KT P6SM SCT250 FM142100 18005KT P6SM BKN200 FM150300 VRB03KT P6SM BKN120 FM151200 32005KT P6SM BKN200